»·PEaware :: N275ND KSNA-KSBD

N275ND :: KSNA-KSBD

FLIGHT INFORMATION

Flight Status: Arrived
Operator: Privately registered:
United States
More flights under this callsign
Pilot: John A. (19135)
Aircraft: CESSNA 172 SKYHAWK
(C172)
More flights by this aircraft type
Origin: KSNA John Wayne-Orange Co
United States
Destination: KSBD San Bernardino Intl
United States
More flights between these airports :: More routes between these airports
Route: +SLI V8 PDZ
File this flight plan on PilotEdge
Remarks: I-4 Rating
Altitude:
(Current/Filed)
6,000ft
Speed:
(Current/Filed)
115kts
Departed: 02-Aug-19 11:40 AM
Arrived: 02-Aug-19 12:17 PM
Distance/Time
Traveled:
40nm/0:36
Distance/Time
To Go:
Arrived

Flight Plot

Page will automatically refresh every two minutes.


Map Options




Map Legend


Flown Route
Filed Route
Departure Airport
Arrival Airport
Navaid (VOR, NDB)
Fix

Horizontal Profiles

Position Reports

Time Latitude Longitude Heading Altitude Ground
Speed
02-Aug-19 11:18 33.668086 -117.871025 221 60ft 0kts
02-Aug-19 11:19 33.668086 -117.871025 221 60ft 0kts
02-Aug-19 11:20 33.668086 -117.871025 221 60ft 0kts
02-Aug-19 11:21 33.668086 -117.871025 221 60ft 0kts
02-Aug-19 11:22 33.668086 -117.871025 221 60ft 0kts
02-Aug-19 11:23 33.668086 -117.871025 221 60ft 0kts
02-Aug-19 11:24 33.668086 -117.871025 221 60ft 0kts
02-Aug-19 11:25 33.668086 -117.871025 221 60ft 0kts
02-Aug-19 11:26 33.668086 -117.871025 221 60ft 0kts
02-Aug-19 11:27 33.668086 -117.871025 221 60ft 0kts
02-Aug-19 11:28 33.668086 -117.871025 221 60ft 0kts
02-Aug-19 11:29 33.668084 -117.871027 221 60ft 0kts
02-Aug-19 11:30 33.669994 -117.870028 42 60ft 13kts
02-Aug-19 11:31 33.671715 -117.868388 34 60ft 9kts
02-Aug-19 11:32 33.675082 -117.866439 43 60ft 12kts
02-Aug-19 11:33 33.678834 -117.864123 24 60ft 9kts
02-Aug-19 11:34 33.679668 -117.863561 24 60ft 12kts
02-Aug-19 11:35 33.679954 -117.863577 306 60ft 0kts
02-Aug-19 11:36 33.679954 -117.863577 306 60ft 0kts
02-Aug-19 11:37 33.679954 -117.863577 306 60ft 0kts
02-Aug-19 11:38 33.679801 -117.864369 211 60ft 17kts
02-Aug-19 11:39 33.665515 -117.877014 213 779ft 75kts
02-Aug-19 11:40 33.651744 -117.895711 225 1747ft 77kts
02-Aug-19 11:41 33.635767 -117.920803 229 1962ft 120kts
02-Aug-19 11:42 33.615940 -117.948920 225 2692ft 111kts
02-Aug-19 11:43 33.620231 -117.972935 16 3098ft 119kts
02-Aug-19 11:44 33.650440 -117.960578 356 3540ft 102kts
02-Aug-19 11:45 33.679720 -117.960496 15 3929ft 106kts
02-Aug-19 11:46 33.707613 -117.954922 15 4563ft 103kts
02-Aug-19 11:48 33.731901 -117.963388 304 4956ft 119kts
02-Aug-19 11:49 33.752010 -117.997352 304 4987ft 131kts
02-Aug-19 11:50 33.774098 -118.031841 314 4991ft 128kts
02-Aug-19 11:51 33.794451 -118.015296 70 5125ft 114kts
02-Aug-19 11:52 33.807553 -117.977818 72 4966ft 123kts
02-Aug-19 11:53 33.812065 -117.939210 68 5001ft 118kts
02-Aug-19 11:54 33.822162 -117.902499 79 5040ft 115kts
02-Aug-19 11:55 33.829975 -117.864965 78 5067ft 115kts
02-Aug-19 11:56 33.838569 -117.827906 83 5038ft 119kts
02-Aug-19 11:57 33.848972 -117.791051 80 5056ft 115kts
02-Aug-19 11:58 33.859962 -117.754362 70 4977ft 121kts
02-Aug-19 11:59 33.869294 -117.716254 76 4957ft 118kts
02-Aug-19 12:00 33.879085 -117.678676 67 4930ft 118kts
02-Aug-19 12:01 33.889090 -117.640985 71 4900ft 117kts
02-Aug-19 12:02 33.898096 -117.604494 68 4989ft 114kts
02-Aug-19 12:03 33.907646 -117.568443 66 5081ft 113kts
02-Aug-19 12:04 33.916959 -117.531899 48 5049ft 117kts
02-Aug-19 12:04 33.942280 -117.520436 24 4873ft 113kts
02-Aug-19 12:06 33.975831 -117.508086 16 4999ft 112kts
02-Aug-19 12:07 34.004087 -117.494294 32 4955ft 97kts
02-Aug-19 12:07 34.020849 -117.478057 56 4975ft 101kts
02-Aug-19 12:09 34.034844 -117.440358 66 4422ft 110kts
02-Aug-19 12:09 34.042335 -117.411610 57 3853ft 101kts
02-Aug-19 12:10 34.051226 -117.380763 81 3332ft 80kts
02-Aug-19 12:11 34.059551 -117.349786 79 2314ft 113kts
02-Aug-19 12:12 34.070326 -117.318466 73 1459ft 89kts
02-Aug-19 12:13 34.077215 -117.295461 73 1431ft 76kts
02-Aug-19 12:14 34.082288 -117.275561 57 1627ft 76kts
02-Aug-19 12:15 34.090102 -117.252422 67 1303ft 80kts
02-Aug-19 12:16 34.094670 -117.242067 356 1161ft 0kts
02-Aug-19 12:17 34.094671 -117.242067 356 1161ft 0kts
02-Aug-19 12:18 34.094671 -117.242067 356 1161ft 0kts
02-Aug-19 12:19 34.094671 -117.242067 356 1161ft 0kts

Navigation Log

Ident Type
Flight plan parsing failed, navigation log unavailable